Time;durP1;ratioP1;P1;durP2;ratioP2;P2;SDS_P1;SDS_P2;PMS_P1;PMS_P2;Temp;Humidity;BMP_temperature;BMP_pressure;BME280_temperature;BME280_humidity;BME280_pressure;Samples;Min_cycle;Max_cycle;Signal;HPM_P1;HPM_P2
2021/08/19 00:02:46;;;;;;;3.90;2.67;;;;;;;17.05;64.40;99767.34;10469870;28;20128;-59
2021/08/19 00:07:48;;;;;;;7.18;2.88;;;;;;;17.11;64.53;99752.72;10459337;28;20094;-59
2021/08/19 00:12:50;;;;;;;5.32;2.63;;;;;;;17.15;64.38;99775.28;10452347;28;20053;-59
2021/08/19 00:17:52;;;;;;;5.80;2.90;;;;;;;17.01;64.91;99777.34;10471799;28;20056;-59
2021/08/19 00:22:55;;;;;;;6.65;2.70;;;;;;;17.06;64.50;99765.53;10459906;28;20104;-59
2021/08/19 00:27:57;;;;;;;4.50;2.70;;;;;;;17.07;64.50;99762.75;10459607;28;20052;-59
2021/08/19 00:32:59;;;;;;;4.53;2.40;;;;;;;17.13;64.12;99774.56;10441198;28;20131;-59
2021/08/19 00:38:01;;;;;;;4.25;2.75;;;;;;;17.14;63.99;99760.41;10461067;28;20076;-59
2021/08/19 00:43:07;;;;;;;6.78;2.80;;;;;;;17.06;64.51;99761.06;10457408;28;20168;-59
2021/08/19 00:48:09;;;;;;;5.15;2.60;;;;;;;16.97;64.25;99760.09;10457507;28;20469;-59
2021/08/19 00:53:11;;;;;;;4.32;2.78;;;;;;;17.05;64.08;99754.13;10466923;28;20160;-59
2021/08/19 00:58:14;;;;;;;4.68;2.70;;;;;;;17.08;63.97;99750.38;10481248;28;20045;-59
2021/08/19 01:03:15;;;;;;;6.28;2.83;;;;;;;17.09;63.77;99750.25;10480613;28;20168;-59
2021/08/19 01:08:18;;;;;;;6.03;2.75;;;;;;;17.14;63.64;99749.84;10479026;28;20063;-59
2021/08/19 01:13:19;;;;;;;7.07;2.58;;;;;;;17.13;63.99;99742.88;10438501;28;20573;-60
2021/08/19 01:18:21;;;;;;;6.45;2.72;;;;;;;17.14;63.48;99739.25;10461958;28;20152;-59
2021/08/19 01:23:23;;;;;;;3.88;2.67;;;;;;;17.20;63.22;99744.00;10454671;28;20164;-59
2021/08/19 01:28:24;;;;;;;4.47;2.63;;;;;;;17.09;63.62;99744.94;10455058;28;20143;-59
2021/08/19 01:33:27;;;;;;;5.80;2.80;;;;;;;17.07;63.47;99746.91;10451245;28;20103;-59
2021/08/19 01:38:31;;;;;;;3.90;2.50;;;;;;;17.01;63.80;99742.16;10454267;28;20128;-59
2021/08/19 01:43:35;;;;;;;4.35;2.83;;;;;;;16.97;63.69;99740.75;10478268;28;20123;-59
2021/08/19 01:48:43;;;;;;;5.55;2.80;;;;;;;16.97;64.13;99724.91;10468050;28;20068;-59
2021/08/19 01:53:51;;;;;;;5.07;2.70;;;;;;;16.96;64.06;99726.72;10449719;28;20227;-59
2021/08/19 01:58:56;;;;;;;4.05;2.60;;;;;;;17.01;64.10;99721.03;10473588;28;20067;-59
2021/08/19 02:03:58;;;;;;;4.85;2.50;;;;;;;16.87;64.11;99726.72;10453257;28;20072;-59
2021/08/19 02:09:00;;;;;;;4.13;2.50;;;;;;;16.87;64.53;99716.13;10471906;28;20093;-59
2021/08/19 02:14:02;;;;;;;7.20;2.53;;;;;;;16.88;64.94;99723.06;10475905;28;20052;-59
2021/08/19 02:19:04;;;;;;;4.43;2.90;;;;;;;16.82;65.33;99715.69;10473816;28;20472;-59
2021/08/19 02:24:06;;;;;;;4.90;2.85;;;;;;;16.65;65.91;99725.09;10466974;28;20161;-59
2021/08/19 02:29:07;;;;;;;4.75;3.00;;;;;;;16.67;65.85;99717.06;10472960;28;20087;-59
2021/08/19 02:34:10;;;;;;;4.25;2.90;;;;;;;16.66;65.95;99716.22;10471716;28;20080;-59
2021/08/19 02:39:11;;;;;;;5.45;2.88;;;;;;;16.66;65.59;99703.03;10479411;28;20144;-59
2021/08/19 02:44:13;;;;;;;5.07;2.88;;;;;;;16.74;65.70;99702.34;10482689;28;20114;-59
2021/08/19 02:49:15;;;;;;;4.95;2.90;;;;;;;16.75;65.30;99691.63;10467614;28;20076;-59
2021/08/19 02:54:16;;;;;;;4.68;2.75;;;;;;;16.77;65.45;99691.53;10474939;28;20036;-59
2021/08/19 02:59:18;;;;;;;4.13;2.83;;;;;;;16.81;65.32;99698.19;10466198;28;20057;-59
2021/08/19 03:04:20;;;;;;;4.85;2.78;;;;;;;16.65;65.45;99693.41;10466401;28;20076;-59
2021/08/19 03:09:21;;;;;;;4.28;2.60;;;;;;;16.67;65.13;99688.84;10450422;28;20088;-59
2021/08/19 03:14:23;;;;;;;4.60;2.72;;;;;;;16.76;64.99;99690.69;10470932;28;20131;-59
2021/08/19 03:19:25;;;;;;;8.35;2.95;;;;;;;16.66;65.42;99687.19;10470029;28;20150;-59
2021/08/19 03:24:30;;;;;;;5.00;2.85;;;;;;;16.60;65.18;99686.88;10457349;28;20096;-59
2021/08/19 03:29:32;;;;;;;4.00;2.72;;;;;;;16.62;65.27;99692.88;10455541;28;20124;-59
2021/08/19 03:34:34;;;;;;;4.25;2.80;;;;;;;16.73;65.28;99690.13;10446818;28;20127;-59
2021/08/19 03:39:37;;;;;;;4.07;2.70;;;;;;;16.78;64.97;99690.53;10473306;28;20132;-59
2021/08/19 03:44:39;;;;;;;4.78;2.70;;;;;;;16.79;64.83;99692.22;10445839;28;20459;-60
2021/08/19 03:49:41;;;;;;;5.88;2.70;;;;;;;16.79;64.79;99690.38;10452271;28;20073;-59
2021/08/19 03:54:43;;;;;;;4.03;2.65;;;;;;;16.83;64.72;99689.13;10457301;28;20060;-59
2021/08/19 03:59:45;;;;;;;4.20;2.70;;;;;;;16.86;64.81;99698.59;10458246;28;20390;-59
2021/08/19 04:04:47;;;;;;;4.00;2.58;;;;;;;16.88;64.40;99700.16;10451845;28;20057;-59
2021/08/19 04:09:49;;;;;;;4.20;2.53;;;;;;;16.95;64.10;99703.09;10446072;28;20053;-59
2021/08/19 04:14:50;;;;;;;4.00;2.70;;;;;;;16.94;64.05;99711.97;10448337;28;20087;-61
2021/08/19 04:19:52;;;;;;;4.78;2.65;;;;;;;16.94;64.24;99710.16;10459561;28;20125;-60
2021/08/19 04:24:54;;;;;;;5.90;2.53;;;;;;;16.87;64.42;99700.28;10448365;28;20482;-61
2021/08/19 04:29:56;;;;;;;3.47;2.40;;;;;;;16.87;64.21;99698.47;10472233;28;20135;-61
2021/08/19 04:34:57;;;;;;;5.15;2.53;;;;;;;16.96;64.23;99691.53;10445306;28;20128;-61
2021/08/19 04:39:59;;;;;;;4.35;2.30;;;;;;;16.93;64.37;99697.09;10448693;28;20048;-61
2021/08/19 04:45:01;;;;;;;6.78;2.60;;;;;;;17.00;64.39;99700.84;10460678;28;20072;-60
2021/08/19 04:50:03;;;;;;;5.18;2.30;;;;;;;17.04;63.84;99700.44;10462901;28;20040;-61
2021/08/19 04:55:06;;;;;;;3.83;2.40;;;;;;;17.03;64.01;99698.78;10459754;28;20135;-60
2021/08/19 05:00:09;;;;;;;3.67;2.28;;;;;;;17.09;63.90;99700.03;10469238;28;20532;-60
2021/08/19 05:05:11;;;;;;;5.55;2.40;;;;;;;17.12;63.55;99709.50;10465149;28;20045;-60
2021/08/19 05:10:12;;;;;;;5.53;2.78;;;;;;;17.05;63.69;99701.28;10464112;28;20049;-60
2021/08/19 05:15:14;;;;;;;5.55;2.60;;;;;;;16.90;64.42;99702.66;10463256;28;20076;-60
2021/08/19 05:20:16;;;;;;;5.20;2.60;;;;;;;16.87;64.42;99709.03;10443764;28;20041;-61
2021/08/19 05:25:18;;;;;;;5.43;2.63;;;;;;;16.95;64.11;99717.13;10457962;28;20057;-60
2021/08/19 05:30:20;;;;;;;4.32;2.25;;;;;;;17.10;63.56;99708.81;10460247;28;20114;-61
2021/08/19 05:35:21;;;;;;;5.28;2.33;;;;;;;17.19;63.64;99708.78;10444565;28;20132;-61
2021/08/19 05:40:23;;;;;;;4.43;2.60;;;;;;;17.22;63.60;99708.50;10454413;28;20083;-60
2021/08/19 05:45:25;;;;;;;5.15;2.30;;;;;;;17.22;63.63;99710.34;10452220;28;20688;-60
2021/08/19 05:50:28;;;;;;;3.58;2.30;;;;;;;17.24;63.63;99711.03;10462750;28;20119;-60
2021/08/19 05:55:30;;;;;;;4.15;2.30;;;;;;;17.34;63.37;99720.66;10469650;28;20080;-61
2021/08/19 06:00:32;;;;;;;5.03;2.50;;;;;;;17.44;63.11;99726.78;10482944;28;20104;-60
2021/08/19 06:05:37;;;;;;;5.30;2.67;;;;;;;17.57;62.79;99739.69;10468014;28;20045;-61
2021/08/19 06:10:38;;;;;;;6.00;2.65;;;;;;;17.71;62.52;99734.81;10453564;28;20045;-60
2021/08/19 06:15:41;;;;;;;4.85;2.60;;;;;;;17.74;62.08;99729.25;10473523;28;20119;-61
2021/08/19 06:20:43;;;;;;;5.72;2.60;;;;;;;17.85;61.79;99733.56;10475675;28;20078;-61
2021/08/19 06:25:45;;;;;;;4.13;2.50;;;;;;;18.13;61.22;99737.09;10447729;28;20106;-60
2021/08/19 06:30:46;;;;;;;7.20;2.35;;;;;;;18.31;60.82;99740.69;10450370;28;20125;-60
2021/08/19 06:35:48;;;;;;;4.93;2.42;;;;;;;18.37;60.49;99740.09;10446137;28;20070;-61
2021/08/19 06:40:50;;;;;;;5.03;2.22;;;;;;;18.51;60.39;99735.16;10459956;28;20072;-60
2021/08/19 06:45:52;;;;;;;3.88;2.38;;;;;;;18.72;59.70;99734.06;10446572;28;20585;-60
2021/08/19 06:50:54;;;;;;;3.60;2.30;;;;;;;18.72;59.14;99737.56;10456713;28;20460;-61
2021/08/19 06:55:55;;;;;;;3.75;2.00;;;;;;;18.63;59.80;99735.78;10482568;28;20096;-60
2021/08/19 07:00:57;;;;;;;3.72;2.47;;;;;;;18.62;59.77;99729.69;10446409;28;20091;-61
2021/08/19 07:05:59;;;;;;;9.35;2.90;;;;;;;18.57;59.38;99725.78;10446465;28;20123;-61
2021/08/19 07:11:01;;;;;;;3.67;2.22;;;;;;;18.67;59.57;99737.16;10464382;28;20139;-60
2021/08/19 07:16:03;;;;;;;3.92;2.03;;;;;;;18.82;58.78;99730.41;10478169;28;20572;-60
2021/08/19 07:21:05;;;;;;;3.70;2.30;;;;;;;19.05;58.67;99723.72;10466679;28;20098;-61
2021/08/19 07:26:07;;;;;;;6.82;2.33;;;;;;;18.93;58.78;99724.06;10458089;28;20567;-61
2021/08/19 07:31:09;;;;;;;3.08;1.95;;;;;;;18.87;59.26;99735.25;10484692;28;20102;-61
2021/08/19 07:36:11;;;;;;;4.15;1.85;;;;;;;18.92;58.89;99731.16;10441656;28;20095;-61
2021/08/19 07:41:14;;;;;;;3.72;2.00;;;;;;;19.00;58.87;99728.59;10411440;28;20041;-60
2021/08/19 07:46:16;;;;;;;3.33;1.92;;;;;;;19.02;58.79;99737.28;10423110;28;20052;-60
2021/08/19 07:51:18;;;;;;;4.55;2.03;;;;;;;19.18;58.62;99739.25;10428106;28;20055;-61
2021/08/19 07:56:20;;;;;;;3.35;1.90;;;;;;;19.32;58.22;99746.66;10435240;28;20073;-60
2021/08/19 08:01:22;;;;;;;3.83;1.98;;;;;;;19.46;57.91;99744.31;10411718;28;20594;-60
2021/08/19 08:06:24;;;;;;;3.28;2.00;;;;;;;19.65;57.60;99740.66;10421436;28;20059;-59
2021/08/19 08:11:26;;;;;;;3.80;1.92;;;;;;;20.12;56.72;99738.53;10419489;28;20482;-59
2021/08/19 08:16:28;;;;;;;2.83;1.95;;;;;;;20.72;55.13;99732.22;10424550;28;20473;-59
2021/08/19 08:21:30;;;;;;;3.35;1.80;;;;;;;21.05;54.10;99728.66;10445597;28;20041;-59
2021/08/19 08:26:32;;;;;;;3.13;1.90;;;;;;;21.64;52.79;99732.09;10414385;28;20541;-60
2021/08/19 08:31:34;;;;;;;5.18;1.65;;;;;;;21.99;52.20;99734.34;10444798;28;20045;-62
2021/08/19 08:36:36;;;;;;;5.22;1.90;;;;;;;22.28;51.25;99732.00;10436409;28;20060;-62
2021/08/19 08:41:40;;;;;;;2.97;1.70;;;;;;;22.24;50.56;99737.84;10444962;28;20124;-62
2021/08/19 08:46:44;;;;;;;4.20;1.80;;;;;;;22.51;49.70;99732.94;10435688;28;20053;-62
2021/08/19 08:51:51;;;;;;;3.15;1.70;;;;;;;22.39;49.41;99731.63;10432590;28;20080;-62
2021/08/19 08:56:53;;;;;;;2.67;1.70;;;;;;;22.26;50.07;99738.50;10439487;28;20491;-61
2021/08/19 09:01:55;;;;;;;3.60;2.00;;;;;;;22.55;49.35;99733.41;10428533;28;20088;-61
2021/08/19 09:07:03;;;;;;;2.78;1.58;;;;;;;22.49;49.00;99736.75;10446219;28;20414;-62
2021/08/19 09:12:07;;;;;;;2.83;1.65;;;;;;;22.17;49.87;99748.34;10445282;28;20128;-62
2021/08/19 09:17:09;;;;;;;3.13;1.70;;;;;;;21.77;50.96;99745.69;10438264;28;20552;-62
2021/08/19 09:22:13;;;;;;;3.13;1.60;;;;;;;21.44;51.38;99750.19;10449051;28;20566;-62
2021/08/19 09:27:16;;;;;;;3.25;1.80;;;;;;;21.19;52.41;99744.97;10450135;28;20053;-62
2021/08/19 09:32:19;;;;;;;2.97;1.75;;;;;;;20.85;54.57;99747.69;10451210;28;20136;-62
2021/08/19 09:37:23;;;;;;;3.58;1.90;;;;;;;20.92;54.29;99754.06;10441760;28;20045;-62
2021/08/19 09:42:38;;;;;;;2.90;1.58;;;;;;;21.01;54.73;99748.59;10451470;28;20131;-62
2021/08/19 09:47:40;;;;;;;2.00;1.45;;;;;;;20.97;54.28;99741.94;10449267;28;20084;-62
2021/08/19 09:52:44;;;;;;;4.90;1.73;;;;;;;21.28;53.76;99738.66;10414427;28;20045;-62
2021/08/19 09:57:46;;;;;;;2.22;1.60;;;;;;;21.66;53.17;99732.75;10437677;28;20048;-61
2021/08/19 10:02:47;;;;;;;2.35;1.60;;;;;;;22.07;51.54;99730.91;10450576;28;20124;-61
2021/08/19 10:07:52;;;;;;;3.38;1.75;;;;;;;21.79;51.69;99727.72;10447839;28;20148;-62
2021/08/19 10:12:57;;;;;;;3.75;1.98;;;;;;;21.44;51.50;99722.75;10449737;28;20045;-61
2021/08/19 10:17:59;;;;;;;2.90;1.75;;;;;;;21.78;50.73;99718.91;10448210;28;20128;-61
2021/08/19 10:23:02;;;;;;;2.75;1.80;;;;;;;21.81;50.73;99717.75;10449242;28;20077;-61
2021/08/19 10:28:21;;;;;;;2.70;1.80;;;;;;;21.85;49.67;99722.56;10447490;28;20057;-61
2021/08/19 10:33:35;;;;;;;4.32;1.75;;;;;;;21.66;50.67;99714.94;10449524;28;20486;-61
2021/08/19 10:38:39;;;;;;;4.28;2.10;;;;;;;21.67;51.85;99726.41;10419203;28;20096;-61
2021/08/19 10:44:01;;;;;;;3.63;2.20;;;;;;;21.56;52.22;99716.94;10409199;28;20060;-61
2021/08/19 10:49:03;;;;;;;3.38;2.28;;;;;;;21.74;51.92;99714.09;10407637;28;20089;-61
2021/08/19 10:54:31;;;;;;;4.35;2.50;;;;;;;21.79;51.14;99711.75;10422437;28;20051;-61
2021/08/19 10:59:33;;;;;;;3.20;2.30;;;;;;;21.82;51.74;99708.78;10448687;28;20048;-61
2021/08/19 11:04:40;;;;;;;4.32;2.40;;;;;;;21.72;52.38;99708.13;10445797;28;20072;-61
2021/08/19 11:09:43;;;;;;;5.93;2.30;;;;;;;21.84;52.21;99706.78;10447305;28;20144;-61
2021/08/19 11:14:56;;;;;;;3.50;2.35;;;;;;;22.04;51.52;99708.09;10427849;28;20084;-61
2021/08/19 11:19:57;;;;;;;3.05;2.22;;;;;;;22.23;51.51;99702.38;10406643;28;20128;-61
2021/08/19 11:24:59;;;;;;;3.42;2.20;;;;;;;22.42;50.84;99701.97;10406207;28;20123;-61
2021/08/19 11:30:01;;;;;;;3.50;2.30;;;;;;;22.17;50.21;99711.03;10434979;28;20088;-61
2021/08/19 11:35:09;;;;;;;2.70;1.90;;;;;;;22.08;50.80;99713.91;10446966;28;20102;-61
2021/08/19 11:40:11;;;;;;;3.13;2.10;;;;;;;22.17;50.57;99713.69;10417125;28;20084;-61
2021/08/19 11:45:18;;;;;;;4.65;2.08;;;;;;;22.73;49.48;99717.16;10405898;28;20134;-62
2021/08/19 11:50:22;;;;;;;3.35;1.70;;;;;;;23.07;48.27;99701.66;10405883;28;20502;-62
2021/08/19 11:55:31;;;;;;;2.17;1.55;;;;;;;23.23;47.67;99709.53;10405375;28;20072;-62
2021/08/19 12:00:33;;;;;;;2.80;1.83;;;;;;;23.12;46.82;99710.81;10435464;28;20084;-61
2021/08/19 12:05:35;;;;;;;1.77;1.40;;;;;;;23.28;46.47;99709.84;10445401;28;20049;-61
2021/08/19 12:10:37;;;;;;;2.60;1.60;;;;;;;23.63;45.59;99725.28;10445560;28;20144;-61
2021/08/19 12:15:39;;;;;;;2.97;1.48;;;;;;;23.57;45.44;99728.69;10445793;28;20095;-61
2021/08/19 12:20:40;;;;;;;2.15;1.63;;;;;;;23.46;46.57;99723.75;10443986;28;20110;-62
2021/08/19 12:25:45;;;;;;;3.05;1.95;;;;;;;23.42;46.80;99717.13;10417372;28;20045;-61
2021/08/19 12:30:58;;;;;;;5.43;2.20;;;;;;;23.78;46.25;99715.47;10445066;28;20136;-61
2021/08/19 12:36:20;;;;;;;2.88;1.73;;;;;;;24.01;44.99;99704.72;10443370;28;20116;-61
2021/08/19 12:41:24;;;;;;;2.72;1.70;;;;;;;24.30;45.13;99704.78;10444830;28;20076;-61
2021/08/19 12:46:38;;;;;;;3.33;1.73;;;;;;;24.65;44.19;99708.53;10434853;28;20077;-61
2021/08/19 12:51:40;;;;;;;2.80;1.52;;;;;;;25.02;43.42;99706.50;10453426;28;20136;-61
2021/08/19 12:56:57;;;;;;;2.65;1.50;;;;;;;24.96;42.65;99706.44;10451292;28;20128;-61
2021/08/19 13:02:02;;;;;;;3.80;1.30;;;;;;;24.66;43.03;99712.84;10452527;28;20099;-61
2021/08/19 13:07:13;;;;;;;1.40;1.30;;;;;;;24.42;42.66;99713.13;10444512;28;20069;-61
2021/08/19 13:12:15;;;;;;;2.08;1.40;;;;;;;24.25;43.14;99707.16;10452549;28;20498;-61
2021/08/19 13:17:17;;;;;;;2.30;1.50;;;;;;;23.96;43.60;99713.28;10432749;28;20049;-61
2021/08/19 13:22:20;;;;;;;3.42;1.33;;;;;;;23.84;44.04;99703.25;10411028;28;20513;-60
2021/08/19 13:27:23;;;;;;;1.80;1.35;;;;;;;23.72;44.14;99710.84;10428850;28;20051;-61
2021/08/19 13:32:25;;;;;;;2.47;1.48;;;;;;;23.96;43.83;99713.28;10451686;28;20083;-62
2021/08/19 13:37:27;;;;;;;2.20;1.40;;;;;;;23.90;43.59;99713.19;10419807;28;20298;-61
2021/08/19 13:42:28;;;;;;;2.75;1.33;;;;;;;23.86;43.60;99709.22;10410904;28;20083;-61
2021/08/19 13:47:30;;;;;;;1.88;1.40;;;;;;;23.88;42.91;99715.22;10440052;28;20139;-61
2021/08/19 13:52:32;;;;;;;2.15;1.40;;;;;;;24.04;42.68;99710.50;10451635;28;20076;-61
2021/08/19 13:57:35;;;;;;;2.70;1.60;;;;;;;23.91;43.07;99702.31;10446997;28;20493;-61
2021/08/19 14:02:36;;;;;;;3.45;1.60;;;;;;;23.73;43.11;99704.50;10451408;28;20087;-61
2021/08/19 14:07:38;;;;;;;2.47;1.50;;;;;;;23.69;43.62;99705.03;10434697;28;20103;-61
2021/08/19 14:12:40;;;;;;;2.40;1.40;;;;;;;23.60;44.14;99711.44;10454049;28;20580;-61
2021/08/19 14:17:42;;;;;;;2.42;1.58;;;;;;;23.66;43.88;99706.22;10451082;28;20137;-60
2021/08/19 14:22:44;;;;;;;2.05;1.40;;;;;;;23.58;44.32;99705.47;10448240;28;20132;-60
2021/08/19 14:27:47;;;;;;;5.47;1.70;;;;;;;23.53;44.05;99707.84;10444067;28;20084;-60
2021/08/19 14:32:50;;;;;;;3.33;1.80;;;;;;;23.19;44.89;99701.06;10447502;28;20052;-61
2021/08/19 14:37:51;;;;;;;3.65;1.80;;;;;;;23.26;44.61;99699.38;10421110;28;20140;-60
2021/08/19 14:42:54;;;;;;;3.28;1.70;;;;;;;23.03;44.86;99695.84;10407025;28;20103;-61
2021/08/19 14:47:57;;;;;;;3.22;1.80;;;;;;;23.02;45.20;99698.69;10411666;28;20084;-61
2021/08/19 14:52:59;;;;;;;3.17;1.90;;;;;;;22.98;44.81;99692.91;10441924;28;20099;-60
2021/08/19 14:58:02;;;;;;;3.20;2.03;;;;;;;22.94;44.92;99690.75;10434913;28;20569;-61
2021/08/19 15:03:04;;;;;;;3.55;2.20;;;;;;;22.88;45.06;99694.13;10447706;28;20045;-60
2021/08/19 15:08:07;;;;;;;4.35;2.20;;;;;;;23.08;44.19;99688.16;10435040;28;20398;-60
2021/08/19 15:13:08;;;;;;;2.92;1.80;;;;;;;23.01;44.83;99699.69;10446803;28;20132;-60
2021/08/19 15:18:10;;;;;;;2.92;1.80;;;;;;;22.47;45.53;99698.78;10441876;28;20098;-61
2021/08/19 15:23:13;;;;;;;3.65;2.00;;;;;;;22.48;45.42;99695.13;10444060;28;20102;-60
2021/08/19 15:28:15;;;;;;;4.80;2.13;;;;;;;22.76;45.49;99691.00;10421544;28;20605;-60
2021/08/19 15:33:19;;;;;;;4.68;1.92;;;;;;;23.06;44.91;99698.19;10405432;28;20486;-61
2021/08/19 15:38:21;;;;;;;3.78;2.13;;;;;;;23.17;44.70;99696.91;10443891;28;20069;-60
2021/08/19 15:43:23;;;;;;;3.70;2.00;;;;;;;23.09;44.88;99691.63;10446443;28;20132;-61
2021/08/19 15:48:24;;;;;;;3.55;2.00;;;;;;;22.84;44.76;99693.63;10432105;28;20091;-60
2021/08/19 15:53:26;;;;;;;4.10;2.05;;;;;;;22.63;45.42;99699.56;10444118;28;20072;-60
2021/08/19 15:58:37;;;;;;;5.38;2.10;;;;;;;22.49;45.73;99694.13;10435480;28;20068;-60
2021/08/19 16:03:39;;;;;;;3.30;2.22;;;;;;;22.44;45.73;99696.47;10403890;28;20132;-60
2021/08/19 16:08:41;;;;;;;2.97;1.77;;;;;;;22.35;45.97;99690.31;10424851;28;20064;-60
2021/08/19 16:13:43;;;;;;;6.68;2.33;;;;;;;22.38;46.20;99689.16;10444643;28;20045;-61
2021/08/19 16:18:45;;;;;;;3.50;1.88;;;;;;;22.33;46.38;99692.34;10442597;28;20068;-61
2021/08/19 16:23:46;;;;;;;3.22;1.98;;;;;;;22.14;46.82;99694.56;10443699;28;20087;-61
2021/08/19 16:28:48;;;;;;;3.83;2.20;;;;;;;22.28;46.85;99692.03;10438962;28;20092;-61
2021/08/19 16:33:50;;;;;;;3.28;1.92;;;;;;;22.23;46.84;99693.56;10444051;28;20124;-61
2021/08/19 16:38:52;;;;;;;4.03;2.10;;;;;;;21.89;47.26;99701.75;10419745;28;20136;-61
2021/08/19 16:43:55;;;;;;;3.70;2.20;;;;;;;21.79;47.43;99690.47;10436961;28;20115;-62
2021/08/19 16:48:56;;;;;;;3.65;2.10;;;;;;;21.73;47.91;99693.78;10418526;28;20132;-61
2021/08/19 16:53:59;;;;;;;3.75;2.30;;;;;;;21.52;47.94;99682.81;10406560;28;20099;-60
2021/08/19 16:59:00;;;;;;;4.20;2.28;;;;;;;21.51;48.22;99692.66;10442251;28;20475;-61
2021/08/19 17:04:02;;;;;;;4.60;1.80;;;;;;;21.55;48.23;99695.81;10443774;28;20132;-60
2021/08/19 17:09:04;;;;;;;3.10;2.00;;;;;;;21.40;48.22;99700.13;10422815;28;20063;-60
2021/08/19 17:14:06;;;;;;;4.55;2.28;;;;;;;21.34;48.48;99706.09;10443364;28;20084;-61
2021/08/19 17:19:08;;;;;;;3.60;2.10;;;;;;;21.21;48.66;99706.59;10405165;28;20128;-62
2021/08/19 17:24:10;;;;;;;3.45;2.10;;;;;;;21.29;48.78;99711.06;10407184;28;20621;-60
2021/08/19 17:29:11;;;;;;;2.88;2.10;;;;;;;21.09;48.61;99715.84;10425396;28;20063;-60
2021/08/19 17:34:15;;;;;;;3.40;1.98;;;;;;;20.89;49.11;99709.16;10448589;28;20557;-60
2021/08/19 17:39:17;;;;;;;3.30;2.13;;;;;;;20.81;49.12;99715.31;10449103;28;20088;-60
2021/08/19 17:44:19;;;;;;;3.25;2.05;;;;;;;20.64;49.58;99716.22;10450299;28;20080;-60
2021/08/19 17:49:20;;;;;;;3.20;2.00;;;;;;;20.70;49.63;99718.25;10420188;28;20089;-60
2021/08/19 17:54:22;;;;;;;5.20;1.98;;;;;;;20.67;49.64;99718.59;10445503;28;20134;-60
2021/08/19 17:59:25;;;;;;;3.83;1.98;;;;;;;20.55;49.75;99725.16;10448960;28;20133;-61
2021/08/19 18:04:27;;;;;;;3.55;2.20;;;;;;;20.51;49.91;99729.13;10449511;28;20132;-60
2021/08/19 18:09:31;;;;;;;4.07;1.90;;;;;;;20.48;50.31;99724.13;10448211;28;20147;-60
2021/08/19 18:14:32;;;;;;;3.15;2.00;;;;;;;20.39;50.61;99725.09;10412199;28;20077;-60
2021/08/19 18:19:34;;;;;;;3.70;2.17;;;;;;;20.34;50.58;99727.38;10439927;28;20056;-61
2021/08/19 18:24:36;;;;;;;3.55;2.20;;;;;;;20.21;51.13;99732.31;10444819;28;20080;-60
2021/08/19 18:29:37;;;;;;;4.22;2.35;;;;;;;20.17;51.10;99736.25;10448547;28;20128;-61
2021/08/19 18:34:39;;;;;;;4.57;2.70;;;;;;;20.13;51.55;99735.72;10414704;28;20134;-61
2021/08/19 18:39:41;;;;;;;4.40;2.40;;;;;;;20.11;51.66;99737.69;10447574;28;20107;-61
2021/08/19 18:44:43;;;;;;;4.72;2.30;;;;;;;20.09;51.73;99737.03;10444318;28;20441;-61
2021/08/19 18:49:44;;;;;;;5.85;2.47;;;;;;;19.96;52.14;99743.75;10446766;28;20139;-61
2021/08/19 18:54:46;;;;;;;3.63;2.50;;;;;;;19.85;52.93;99749.28;10427593;28;20081;-61
2021/08/19 18:59:48;;;;;;;4.45;2.40;;;;;;;19.68;53.60;99755.44;10433888;28;20131;-61
2021/08/19 19:04:50;;;;;;;6.93;2.50;;;;;;;19.51;53.69;99753.63;10427017;28;20050;-61
2021/08/19 19:09:51;;;;;;;5.40;2.80;;;;;;;19.27;54.32;99757.75;10439344;28;20148;-61
2021/08/19 19:14:53;;;;;;;6.03;2.60;;;;;;;19.09;55.05;99759.56;10441889;28;20128;-61
2021/08/19 19:19:55;;;;;;;4.22;2.60;;;;;;;18.90;55.61;99772.03;10446734;28;20116;-61
2021/08/19 19:24:57;;;;;;;5.90;2.67;;;;;;;18.74;56.11;99771.84;10438147;28;20123;-61
2021/08/19 19:29:59;;;;;;;4.97;2.88;;;;;;;18.63;56.35;99771.06;10446785;28;20100;-61
2021/08/19 19:35:00;;;;;;;7.28;2.90;;;;;;;18.40;56.82;99783.00;10426517;28;20148;-61
2021/08/19 19:40:03;;;;;;;5.40;3.05;;;;;;;18.09;57.70;99794.78;10432994;28;20106;-61
2021/08/19 19:45:05;;;;;;;6.82;3.20;;;;;;;17.88;58.35;99795.91;10425538;28;20089;-61
2021/08/19 19:50:08;;;;;;;4.30;3.17;;;;;;;17.83;58.69;99796.34;10420116;28;20076;-61
2021/08/19 19:55:10;;;;;;;4.30;2.60;;;;;;;17.77;58.58;99802.22;10437777;28;20080;-61
2021/08/19 20:00:12;;;;;;;4.13;2.83;;;;;;;17.59;58.85;99802.06;10418006;28;20557;-61
2021/08/19 20:05:14;;;;;;;5.97;3.33;;;;;;;17.48;59.16;99801.38;10418780;28;20040;-61
2021/08/19 20:10:16;;;;;;;5.82;3.30;;;;;;;17.28;59.91;99808.38;10443668;28;20491;-61
2021/08/19 20:15:18;;;;;;;5.15;3.25;;;;;;;17.25;60.34;99807.84;10435023;28;20509;-61
2021/08/19 20:20:19;;;;;;;6.57;3.15;;;;;;;17.13;60.44;99815.06;10439779;28;20045;-61
2021/08/19 20:25:22;;;;;;;5.60;3.00;;;;;;;17.09;60.63;99818.09;10443540;28;20083;-61
2021/08/19 20:30:23;;;;;;;6.63;2.92;;;;;;;17.10;61.01;99827.72;10442924;28;20132;-61
2021/08/19 20:35:25;;;;;;;7.38;4.20;;;;;;;17.07;61.38;99820.03;10442437;28;20111;-61
2021/08/19 20:40:27;;;;;;;10.52;4.30;;;;;;;17.00;61.67;99820.56;10444389;28;20041;-62
2021/08/19 20:45:29;;;;;;;5.10;3.38;;;;;;;16.94;61.81;99823.75;10423109;28;20136;-61
2021/08/19 20:50:31;;;;;;;7.57;3.90;;;;;;;16.92;61.43;99830.13;10435152;28;20049;-63
2021/08/19 20:55:33;;;;;;;148.10;96.22;;;;;;;16.89;61.71;99835.72;10442562;28;20106;-61
2021/08/19 21:00:37;;;;;;;401.50;287.27;;;;;;;16.87;62.14;99830.53;10444086;28;20144;-61
2021/08/19 21:05:39;;;;;;;123.53;87.55;;;;;;;16.82;62.18;99837.19;10436424;28;20493;-62
2021/08/19 21:10:41;;;;;;;133.85;101.88;;;;;;;16.76;62.29;99835.09;10450969;28;20657;-61
2021/08/19 21:15:42;;;;;;;123.95;95.80;;;;;;;16.69;62.27;99839.25;10444357;28;20140;-61
2021/08/19 21:20:44;;;;;;;96.47;74.35;;;;;;;16.43;62.83;99841.47;10410043;28;20128;-61
2021/08/19 21:25:46;;;;;;;53.15;39.88;;;;;;;16.43;62.72;99835.31;10411487;28;20049;-61
2021/08/19 21:30:48;;;;;;;43.03;32.88;;;;;;;16.48;62.68;99843.72;10434457;28;20044;-61
2021/08/19 21:35:49;;;;;;;30.83;22.52;;;;;;;16.37;63.29;99841.94;10449595;28;20132;-61
2021/08/19 21:40:51;;;;;;;27.17;20.35;;;;;;;16.49;63.11;99842.78;10451673;28;20077;-61
2021/08/19 21:45:53;;;;;;;42.83;31.35;;;;;;;16.56;62.93;99846.53;10446494;28;20045;-64
2021/08/19 21:50:55;;;;;;;37.83;26.90;;;;;;;16.30;63.05;99854.00;10444704;28;20061;-64
2021/08/19 21:55:57;;;;;;;28.55;20.75;;;;;;;16.21;63.36;99847.69;10432808;28;20103;-63
2021/08/19 22:00:59;;;;;;;25.13;19.42;;;;;;;16.19;63.29;99849.63;10449314;28;20087;-63
2021/08/19 22:06:01;;;;;;;29.15;21.42;;;;;;;16.29;63.48;99849.69;10450095;28;20085;-64
2021/08/19 22:11:02;;;;;;;28.40;23.17;;;;;;;16.39;63.39;99844.44;10441865;28;20045;-64
2021/08/19 22:16:04;;;;;;;33.95;30.23;;;;;;;16.58;63.03;99834.88;10425726;28;20045;-64
2021/08/19 22:21:06;;;;;;;30.65;27.45;;;;;;;16.65;62.82;99840.47;10448214;28;20045;-63
2021/08/19 22:26:10;;;;;;;22.08;19.67;;;;;;;16.68;62.63;99837.56;10448118;28;20041;-64
2021/08/19 22:31:11;;;;;;;15.38;12.90;;;;;;;16.78;62.65;99838.44;10448708;28;20075;-64
2021/08/19 22:36:16;;;;;;;10.38;8.43;;;;;;;16.87;62.50;99833.19;10446198;28;20057;-64
2021/08/19 22:41:18;;;;;;;13.00;11.25;;;;;;;16.92;62.41;99836.28;10446647;28;20556;-64
2021/08/19 22:46:19;;;;;;;10.27;7.53;;;;;;;16.95;62.08;99836.00;10447239;28;20144;-64
2021/08/19 22:51:21;;;;;;;11.45;6.65;;;;;;;16.97;62.01;99838.50;10446502;28;20044;-64
2021/08/19 22:56:23;;;;;;;6.88;5.28;;;;;;;16.94;62.35;99841.41;10433534;28;20602;-64
2021/08/19 23:01:25;;;;;;;8.38;5.30;;;;;;;16.93;62.23;99845.03;10440677;28;20045;-64
2021/08/19 23:06:27;;;;;;;9.02;5.70;;;;;;;16.99;62.14;99842.69;10443608;28;20061;-64
2021/08/19 23:11:29;;;;;;;9.30;4.80;;;;;;;17.10;62.01;99841.75;10445923;28;20080;-64
2021/08/19 23:16:31;;;;;;;10.77;5.10;;;;;;;17.09;61.87;99845.38;10444923;28;20067;-66
2021/08/19 23:21:33;;;;;;;6.97;4.65;;;;;;;16.94;61.81;99841.41;10445291;28;20037;-65
2021/08/19 23:26:35;;;;;;;6.35;4.07;;;;;;;16.73;62.51;99851.22;10419744;28;20552;-66